Time;durP1;ratioP1;P1;durP2;ratioP2;P2;SDS_P1;SDS_P2;PMS_P1;PMS_P2;Temp;Humidity;BMP_temperature;BMP_pressure;BME280_temperature;BME280_humidity;BME280_pressure;Samples;Min_cycle;Max_cycle;Signal;HPM_P1;HPM_P2
2022/04/05 00:00:22;;;;;;;;;;;5.50;99.90;;;;;;5093310;28;20022;-69
2022/04/05 00:02:49;;;;;;;;;;;5.50;99.90;;;;;;5105921;28;20294;-69
2022/04/05 00:05:17;;;;;;;;;;;5.50;99.90;;;;;;5091208;28;19938;-69
2022/04/05 00:07:44;;;;;;;;;;;5.50;99.90;;;;;;5095386;28;19938;-69
2022/04/05 00:10:11;;;;;;;;;;;5.50;99.90;;;;;;5093079;28;20003;-69
2022/04/05 00:12:37;;;;;;;;;;;5.50;99.90;;;;;;5095845;28;20010;-68
2022/04/05 00:15:05;;;;;;;;;;;5.50;99.90;;;;;;5097315;28;20006;-68
2022/04/05 00:17:32;;;;;;;;;;;5.50;99.90;;;;;;5083207;28;19932;-68
2022/04/05 00:19:59;;;;;;;;;;;5.40;99.90;;;;;;5092285;28;19966;-70
2022/04/05 00:22:26;;;;;;;;;;;5.50;99.90;;;;;;5099589;28;20034;-68
2022/04/05 00:24:53;;;;;;;;;;;5.50;99.90;;;;;;5103045;28;20446;-68
2022/04/05 00:27:22;;;;;;;;;;;5.50;99.90;;;;;;5105151;28;19924;-69
2022/04/05 00:29:49;;;;;;;;;;;5.50;99.90;;;;;;5090989;28;19924;-68
2022/04/05 00:32:15;;;;;;;;;;;5.60;99.90;;;;;;5104371;28;19971;-69
2022/04/05 00:34:42;;;;;;;;;;;5.60;99.90;;;;;;5106858;28;20019;-69
2022/04/05 00:37:09;;;;;;;;;;;5.60;99.90;;;;;;5102173;28;20418;-68
2022/04/05 00:39:41;;;;;;;;;;;5.50;99.90;;;;;;5097920;28;20014;-68
2022/04/05 00:42:10;;;;;;;;;;;5.50;99.90;;;;;;5110435;28;19924;-69
2022/04/05 00:44:37;;;;;;;;;;;5.40;99.90;;;;;;5109483;28;19928;-69
2022/04/05 00:47:13;;;;;;;;;;;5.50;99.90;;;;;;5114745;28;20433;-68
2022/04/05 00:49:40;;;;;;;;;;;5.50;99.90;;;;;;5103248;28;19970;-68
2022/04/05 00:52:07;;;;;;;;;;;5.50;99.90;;;;;;5090672;28;20497;-69
2022/04/05 00:54:35;;;;;;;;;;;5.50;99.90;;;;;;5112940;28;19935;-68
2022/04/05 00:57:02;;;;;;;;;;;5.50;99.90;;;;;;5092237;28;19932;-68
2022/04/05 00:59:30;;;;;;;;;;;5.50;99.90;;;;;;5100208;28;19970;-68
2022/04/05 01:01:57;;;;;;;;;;;5.50;99.90;;;;;;5112022;28;19965;-69
2022/04/05 01:04:25;;;;;;;;;;;5.50;99.90;;;;;;5105708;28;19924;-69
2022/04/05 01:06:53;;;;;;;;;;;5.50;99.90;;;;;;5088189;28;20550;-68
2022/04/05 01:09:20;;;;;;;;;;;5.50;99.90;;;;;;5078625;28;19923;-68
2022/04/05 01:11:49;;;;;;;;;;;5.50;99.90;;;;;;5106752;28;19930;-68
2022/04/05 01:14:16;;;;;;;;;;;5.50;99.90;;;;;;5102328;28;19935;-69
2022/04/05 01:16:42;;;;;;;;;;;5.50;99.90;;;;;;5083541;28;20042;-68
2022/04/05 01:19:09;;;;;;;;;;;5.50;99.90;;;;;;5103837;28;19923;-68
2022/04/05 01:21:36;;;;;;;;;;;5.60;99.90;;;;;;5104072;28;19928;-68
2022/04/05 01:24:13;;;;;;;;;;;5.50;99.90;;;;;;5115234;28;19930;-69
2022/04/05 01:26:50;;;;;;;;;;;5.50;99.90;;;;;;5095300;28;19978;-69
2022/04/05 01:29:20;;;;;;;;;;;5.50;99.90;;;;;;5103249;28;20418;-69
2022/04/05 01:31:48;;;;;;;;;;;5.60;99.90;;;;;;5100767;28;19928;-69
2022/04/05 01:34:18;;;;;;;;;;;5.60;99.90;;;;;;5094495;28;19959;-68
2022/04/05 01:36:46;;;;;;;;;;;5.60;99.90;;;;;;5102052;28;19928;-69
2022/04/05 01:39:17;;;;;;;;;;;5.60;99.90;;;;;;5109564;28;19938;-68
2022/04/05 01:41:46;;;;;;;;;;;5.60;99.90;;;;;;5105527;28;19927;-68
2022/04/05 01:44:13;;;;;;;;;;;5.60;99.90;;;;;;5097892;28;19962;-68
2022/04/05 01:46:40;;;;;;;;;;;5.60;99.90;;;;;;5095998;28;19931;-69
2022/04/05 01:49:11;;;;;;;;;;;5.60;99.90;;;;;;5101358;28;19955;-69
2022/04/05 01:51:38;;;;;;;;;;;5.60;99.90;;;;;;5094559;28;19938;-69
2022/04/05 01:54:05;;;;;;;;;;;5.60;99.90;;;;;;5096098;28;19924;-68
2022/04/05 01:56:32;;;;;;;;;;;5.60;99.90;;;;;;5096798;28;19928;-69
2022/04/05 01:59:00;;;;;;;;;;;5.60;99.90;;;;;;5100548;28;19962;-69
2022/04/05 02:01:27;;;;;;;;;;;5.50;99.90;;;;;;5098665;28;20015;-68
2022/04/05 02:03:57;;;;;;;;;;;5.60;99.90;;;;;;5099679;28;20397;-69
2022/04/05 02:06:24;;;;;;;;;;;5.60;99.90;;;;;;5103359;28;20006;-68
2022/04/05 02:08:51;;;;;;;;;;;5.60;99.90;;;;;;5102396;28;20007;-68
2022/04/05 02:11:18;;;;;;;;;;;5.60;99.90;;;;;;5097877;28;19923;-69
2022/04/05 02:13:44;;;;;;;;;;;5.60;99.90;;;;;;5085650;28;19935;-68
2022/04/05 02:16:11;;;;;;;;;;;5.60;99.90;;;;;;5092971;28;21823;-68
2022/04/05 02:18:38;;;;;;;;;;;5.60;99.90;;;;;;5106078;28;19924;-69
2022/04/05 02:21:05;;;;;;;;;;;5.60;99.90;;;;;;5097331;28;20009;-69
2022/04/05 02:23:31;;;;;;;;;;;5.60;99.90;;;;;;5105862;28;20425;-69
2022/04/05 02:25:58;;;;;;;;;;;5.60;99.90;;;;;;5104085;28;19982;-69
2022/04/05 02:28:25;;;;;;;;;;;5.60;99.90;;;;;;5105818;28;20378;-68
2022/04/05 02:30:52;;;;;;;;;;;5.60;99.90;;;;;;5109334;28;20011;-68
2022/04/05 02:33:21;;;;;;;;;;;5.60;99.90;;;;;;5097041;28;20015;-69
2022/04/05 02:35:51;;;;;;;;;;;5.60;99.90;;;;;;5095884;28;19979;-69
2022/04/05 02:38:18;;;;;;;;;;;5.60;99.90;;;;;;5097484;28;20023;-68
2022/04/05 02:40:47;;;;;;;;;;;5.60;99.90;;;;;;5104231;28;19939;-69
2022/04/05 02:43:14;;;;;;;;;;;5.70;99.90;;;;;;5098327;28;19974;-68
2022/04/05 02:45:41;;;;;;;;;;;5.70;99.90;;;;;;5080520;28;19989;-68
2022/04/05 02:48:10;;;;;;;;;;;5.70;99.90;;;;;;5096741;28;19923;-68
2022/04/05 02:50:36;;;;;;;;;;;5.70;99.90;;;;;;5104710;28;19928;-68
2022/04/05 02:53:03;;;;;;;;;;;5.70;99.90;;;;;;5096714;28;19928;-68
2022/04/05 02:55:30;;;;;;;;;;;5.70;99.90;;;;;;5102370;28;20031;-68
2022/04/05 02:57:58;;;;;;;;;;;5.70;99.90;;;;;;5104758;28;19961;-68
2022/04/05 03:00:27;;;;;;;;;;;5.70;99.90;;;;;;5109936;28;19923;-69
2022/04/05 03:02:54;;;;;;;;;;;5.70;99.90;;;;;;5101818;28;19938;-68
2022/04/05 03:05:22;;;;;;;;;;;5.70;99.90;;;;;;5106797;28;20007;-68
2022/04/05 03:07:49;;;;;;;;;;;5.70;99.90;;;;;;5100565;28;20345;-68
2022/04/05 03:10:15;;;;;;;;;;;5.70;99.90;;;;;;5075202;28;19971;-68
2022/04/05 03:12:42;;;;;;;;;;;5.70;99.90;;;;;;5103138;28;20018;-68
2022/04/05 03:15:09;;;;;;;;;;;5.70;99.90;;;;;;5109279;28;20546;-68
2022/04/05 03:17:41;;;;;;;;;;;5.70;99.90;;;;;;5098609;28;19963;-68
2022/04/05 03:20:14;;;;;;;;;;;5.70;99.90;;;;;;5101291;28;20054;-68
2022/04/05 03:22:43;;;;;;;;;;;5.70;99.90;;;;;;5108553;28;19927;-68
2022/04/05 03:25:10;;;;;;;;;;;5.70;99.90;;;;;;5089578;28;20326;-68
2022/04/05 03:27:43;;;;;;;;;;;5.70;99.90;;;;;;5098833;28;20421;-68
2022/04/05 03:30:11;;;;;;;;;;;5.80;99.90;;;;;;5104345;28;19930;-68
2022/04/05 03:32:37;;;;;;;;;;;5.70;99.90;;;;;;5109858;28;19939;-69
2022/04/05 03:35:06;;;;;;;;;;;5.80;99.90;;;;;;5099390;28;20453;-68
2022/04/05 03:37:33;;;;;;;;;;;5.80;99.90;;;;;;5088053;28;20561;-68
2022/04/05 03:40:01;;;;;;;;;;;5.80;99.90;;;;;;5106108;28;19970;-69
2022/04/05 03:42:28;;;;;;;;;;;5.80;99.90;;;;;;5106538;28;19923;-68
2022/04/05 03:44:54;;;;;;;;;;;5.80;99.90;;;;;;5106082;28;19924;-69
2022/04/05 03:47:21;;;;;;;;;;;5.80;99.90;;;;;;5108216;28;20018;-69
2022/04/05 03:49:48;;;;;;;;;;;5.80;99.90;;;;;;5107106;28;19930;-69
2022/04/05 03:52:15;;;;;;;;;;;5.80;99.90;;;;;;5100410;28;20014;-68
2022/04/05 03:54:42;;;;;;;;;;;5.80;99.90;;;;;;5093163;28;20003;-68
2022/04/05 03:57:08;;;;;;;;;;;5.80;99.90;;;;;;5101181;28;20393;-68
2022/04/05 03:59:35;;;;;;;;;;;5.80;99.90;;;;;;5098621;28;19924;-69
2022/04/05 04:02:02;;;;;;;;;;;5.90;99.90;;;;;;5081895;28;19964;-68
2022/04/05 04:04:29;;;;;;;;;;;5.90;99.90;;;;;;5097539;28;19924;-69
2022/04/05 04:06:55;;;;;;;;;;;5.90;99.90;;;;;;5100955;28;20026;-68
2022/04/05 04:09:22;;;;;;;;;;;5.90;99.90;;;;;;5090769;28;20018;-68
2022/04/05 04:11:56;;;;;;;;;;;5.90;99.90;;;;;;5095870;28;20480;-69
2022/04/05 04:14:23;;;;;;;;;;;5.90;99.90;;;;;;5105819;28;20023;-69
2022/04/05 04:16:52;;;;;;;;;;;5.90;99.90;;;;;;5093271;28;20453;-69
2022/04/05 04:19:21;;;;;;;;;;;5.90;99.90;;;;;;5071987;28;19939;-69
2022/04/05 04:21:48;;;;;;;;;;;5.90;99.90;;;;;;5099150;28;19925;-69
2022/04/05 04:24:15;;;;;;;;;;;5.90;99.90;;;;;;5095195;28;20327;-69
2022/04/05 04:26:41;;;;;;;;;;;5.90;99.90;;;;;;5082099;28;20673;-70
2022/04/05 04:29:08;;;;;;;;;;;5.90;99.90;;;;;;5101184;28;19982;-70
2022/04/05 04:31:36;;;;;;;;;;;5.90;99.90;;;;;;5093502;28;19950;-69
2022/04/05 04:34:03;;;;;;;;;;;6.00;99.90;;;;;;5099950;28;19932;-70
2022/04/05 04:36:30;;;;;;;;;;;6.00;99.90;;;;;;5110337;28;19963;-69
2022/04/05 04:39:00;;;;;;;;;;;6.00;99.90;;;;;;5100336;28;19960;-70
2022/04/05 04:41:29;;;;;;;;;;;6.00;99.90;;;;;;5098620;28;20351;-70
2022/04/05 04:43:55;;;;;;;;;;;6.00;99.90;;;;;;5102033;28;20382;-69
2022/04/05 04:46:22;;;;;;;;;;;6.00;99.90;;;;;;5095237;28;20409;-69
2022/04/05 04:48:49;;;;;;;;;;;6.00;99.90;;;;;;5100775;28;19925;-69
2022/04/05 04:51:18;;;;;;;;;;;6.00;99.90;;;;;;5096256;28;20015;-70
2022/04/05 04:53:45;;;;;;;;;;;6.00;99.90;;;;;;5095210;28;20469;-69
2022/04/05 04:56:12;;;;;;;;;;;6.00;99.90;;;;;;5106424;28;19924;-69
2022/04/05 04:58:39;;;;;;;;;;;6.00;99.90;;;;;;5085998;28;20244;-69
2022/04/05 05:01:06;;;;;;;;;;;6.00;99.90;;;;;;5105614;28;19945;-69
2022/04/05 05:03:32;;;;;;;;;;;6.00;99.90;;;;;;5107316;28;19936;-71
2022/04/05 05:06:00;;;;;;;;;;;6.00;99.90;;;;;;5099237;28;19932;-70
2022/04/05 05:08:26;;;;;;;;;;;6.00;99.90;;;;;;5103093;28;19928;-70
2022/04/05 05:10:53;;;;;;;;;;;6.00;99.90;;;;;;5086765;28;19930;-70
2022/04/05 05:13:21;;;;;;;;;;;6.00;99.90;;;;;;5088010;28;19969;-70
2022/04/05 05:15:49;;;;;;;;;;;6.00;99.90;;;;;;5101210;28;19953;-69
2022/04/05 05:18:16;;;;;;;;;;;6.00;99.90;;;;;;5103872;28;20288;-70
2022/04/05 05:20:43;;;;;;;;;;;6.00;99.90;;;;;;5105600;28;19924;-70
2022/04/05 05:23:10;;;;;;;;;;;6.00;99.90;;;;;;5105324;28;20334;-70
2022/04/05 05:25:37;;;;;;;;;;;6.10;99.90;;;;;;5103831;28;20002;-70
2022/04/05 05:28:04;;;;;;;;;;;6.10;99.90;;;;;;5098037;28;20023;-70
2022/04/05 05:30:31;;;;;;;;;;;6.00;99.90;;;;;;5082972;28;20022;-70
2022/04/05 05:32:58;;;;;;;;;;;6.00;99.90;;;;;;5115631;27;19932;-70
2022/04/05 05:35:25;;;;;;;;;;;6.00;99.90;;;;;;5097058;28;19930;-70
2022/04/05 05:37:52;;;;;;;;;;;5.90;99.90;;;;;;5085499;28;19928;-70
2022/04/05 05:40:19;;;;;;;;;;;5.90;99.90;;;;;;5103222;27;20343;-70
2022/04/05 05:42:47;;;;;;;;;;;5.80;99.90;;;;;;5108280;28;19924;-70
2022/04/05 05:45:14;;;;;;;;;;;5.80;99.90;;;;;;5083441;28;20418;-70
2022/04/05 05:47:40;;;;;;;;;;;5.80;99.90;;;;;;5094033;28;20019;-70
2022/04/05 05:50:10;;;;;;;;;;;5.80;99.90;;;;;;5105272;27;20378;-70
2022/04/05 05:52:36;;;;;;;;;;;5.80;99.90;;;;;;5106135;27;20010;-70
2022/04/05 05:55:04;;;;;;;;;;;5.80;99.90;;;;;;5106168;28;19924;-69
2022/04/05 05:57:30;;;;;;;;;;;5.80;99.90;;;;;;5106846;28;19927;-70
2022/04/05 06:00:02;;;;;;;;;;;5.80;99.90;;;;;;5096229;28;19932;-69
2022/04/05 06:02:29;;;;;;;;;;;5.80;99.90;;;;;;5107700;27;19924;-69
2022/04/05 06:04:56;;;;;;;;;;;5.80;99.90;;;;;;5117832;27;20343;-69
2022/04/05 06:07:22;;;;;;;;;;;5.80;99.90;;;;;;5105079;28;20449;-69
2022/04/05 06:09:49;;;;;;;;;;;5.90;99.90;;;;;;5084459;28;19923;-70
2022/04/05 06:12:15;;;;;;;;;;;5.90;99.90;;;;;;5100208;28;19931;-69
2022/04/05 06:14:42;;;;;;;;;;;6.00;99.90;;;;;;5100008;28;20129;-69
2022/04/05 06:17:09;;;;;;;;;;;5.90;99.90;;;;;;5107548;28;19998;-70
2022/04/05 06:19:35;;;;;;;;;;;6.00;99.90;;;;;;5096293;28;20012;-69
2022/04/05 06:22:02;;;;;;;;;;;6.00;99.90;;;;;;5078318;28;20012;-70
2022/04/05 06:24:29;;;;;;;;;;;6.00;99.90;;;;;;5097938;28;19974;-70
2022/04/05 06:26:56;;;;;;;;;;;6.00;99.90;;;;;;5105533;27;20026;-69
2022/04/05 06:29:22;;;;;;;;;;;6.00;99.90;;;;;;5102642;27;19925;-70
2022/04/05 06:31:49;;;;;;;;;;;5.90;99.90;;;;;;5113803;27;19934;-70
2022/04/05 06:34:22;;;;;;;;;;;5.90;99.90;;;;;;5090382;28;20879;-70
2022/04/05 06:36:51;;;;;;;;;;;5.90;99.90;;;;;;5097727;28;19924;-70
2022/04/05 06:39:18;;;;;;;;;;;5.90;99.90;;;;;;5102242;28;19966;-70
2022/04/05 06:41:45;;;;;;;;;;;5.90;99.90;;;;;;5103463;28;19924;-70
2022/04/05 06:44:12;;;;;;;;;;;5.90;99.90;;;;;;5094673;28;19959;-70
2022/04/05 06:46:39;;;;;;;;;;;5.80;99.90;;;;;;5095339;27;20007;-70
2022/04/05 06:49:05;;;;;;;;;;;5.80;99.90;;;;;;5098802;28;19928;-70
2022/04/05 06:51:33;;;;;;;;;;;5.80;99.90;;;;;;5097970;28;20309;-70
2022/04/05 06:54:00;;;;;;;;;;;5.80;99.90;;;;;;5100002;28;20362;-70
2022/04/05 06:56:26;;;;;;;;;;;5.80;99.90;;;;;;5097800;28;20370;-70
2022/04/05 06:58:53;;;;;;;;;;;5.80;99.90;;;;;;5097519;28;20010;-71
2022/04/05 07:01:20;;;;;;;;;;;5.70;99.90;;;;;;5100582;28;19943;-71
2022/04/05 07:03:47;;;;;;;;;;;5.80;99.90;;;;;;5098520;28;19959;-71
2022/04/05 07:06:13;;;;;;;;;;;5.80;99.90;;;;;;5082862;28;19927;-70
2022/04/05 07:08:40;;;;;;;;;;;5.80;99.90;;;;;;5103522;28;20015;-70
2022/04/05 07:11:07;;;;;;;;;;;5.80;99.90;;;;;;5101671;27;19924;-69
2022/04/05 07:13:34;;;;;;;;;;;5.90;99.90;;;;;;5101721;28;20312;-69
2022/04/05 07:16:01;;;;;;;;;;;5.90;99.90;;;;;;5100640;28;19924;-69
2022/04/05 07:18:28;;;;;;;;;;;6.00;99.90;;;;;;5103318;28;19988;-68
2022/04/05 07:20:58;;;;;;;;;;;6.00;99.90;;;;;;5097385;28;20012;-67
2022/04/05 07:23:25;;;;;;;;;;;6.10;99.90;;;;;;5101969;28;19924;-70
2022/04/05 07:25:52;;;;;;;;;;;6.10;99.90;;;;;;5096472;28;19924;-69
2022/04/05 07:28:18;;;;;;;;;;;6.20;99.90;;;;;;5096020;28;20030;-66
2022/04/05 07:30:45;;;;;;;;;;;6.20;99.90;;;;;;5097411;28;19924;-69
2022/04/05 07:33:12;;;;;;;;;;;6.20;99.90;;;;;;5108116;28;19924;-69
2022/04/05 07:35:38;;;;;;;;;;;6.20;99.90;;;;;;5093342;28;20019;-69
2022/04/05 07:38:05;;;;;;;;;;;6.30;99.90;;;;;;5092952;28;20004;-69
2022/04/05 07:40:51;;;;;;;;;;;6.40;99.90;;;;;;5100532;28;19982;-68
2022/04/05 07:43:21;;;;;;;;;;;6.50;99.90;;;;;;5087287;27;20010;-68
2022/04/05 07:45:49;;;;;;;;;;;6.50;99.90;;;;;;5098117;28;19935;-68
2022/04/05 07:48:19;;;;;;;;;;;6.60;99.90;;;;;;5098214;28;20405;-69
2022/04/05 07:50:49;;;;;;;;;;;6.60;99.90;;;;;;5099068;28;19936;-70
2022/04/05 07:53:16;;;;;;;;;;;6.70;99.90;;;;;;5084682;28;19959;-69
2022/04/05 07:55:43;;;;;;;;;;;6.70;99.90;;;;;;5108938;27;19978;-69
2022/04/05 07:58:09;;;;;;;;;;;6.70;99.90;;;;;;5080718;28;19924;-68
2022/04/05 08:00:36;;;;;;;;;;;6.80;99.90;;;;;;5109080;27;19961;-68
2022/04/05 08:03:03;;;;;;;;;;;6.90;99.90;;;;;;5085798;28;19923;-68
2022/04/05 08:05:30;;;;;;;;;;;7.00;99.90;;;;;;5085118;28;19974;-68
2022/04/05 08:07:57;;;;;;;;;;;7.20;99.90;;;;;;5100397;28;20255;-69
2022/04/05 08:10:23;;;;;;;;;;;7.20;99.90;;;;;;5093689;28;20011;-69
2022/04/05 08:12:50;;;;;;;;;;;7.30;99.90;;;;;;5084908;28;19924;-68
2022/04/05 08:15:18;;;;;;;;;;;7.40;99.90;;;;;;5095876;28;19924;-69
2022/04/05 08:17:45;;;;;;;;;;;7.40;99.90;;;;;;5093706;28;19994;-69
2022/04/05 08:20:15;;;;;;;;;;;7.60;99.90;;;;;;5097235;28;19950;-69
2022/04/05 08:22:42;;;;;;;;;;;7.80;99.90;;;;;;5105364;28;19924;-69
2022/04/05 08:25:09;;;;;;;;;;;7.90;99.90;;;;;;5095668;28;19983;-68
2022/04/05 08:27:36;;;;;;;;;;;7.90;99.90;;;;;;5099054;28;19957;-68
2022/04/05 08:30:04;;;;;;;;;;;7.80;99.90;;;;;;5091694;28;19923;-68
2022/04/05 08:32:31;;;;;;;;;;;7.90;99.90;;;;;;5098211;28;19932;-68
2022/04/05 08:34:57;;;;;;;;;;;7.80;99.90;;;;;;5100754;28;20015;-69
2022/04/05 08:37:27;;;;;;;;;;;7.90;99.90;;;;;;5095320;28;20051;-68
2022/04/05 08:39:55;;;;;;;;;;;7.90;99.90;;;;;;5098920;28;19963;-68
2022/04/05 08:42:23;;;;;;;;;;;7.90;99.90;;;;;;5087368;28;20052;-68
2022/04/05 08:44:53;;;;;;;;;;;7.80;99.90;;;;;;5100134;28;20010;-68
2022/04/05 08:47:23;;;;;;;;;;;7.80;99.90;;;;;;5092329;28;19932;-68
2022/04/05 08:49:50;;;;;;;;;;;7.80;99.90;;;;;;5095425;28;19923;-68
2022/04/05 08:52:16;;;;;;;;;;;7.80;99.90;;;;;;5100949;28;19930;-68
2022/04/05 08:54:43;;;;;;;;;;;7.90;99.90;;;;;;5105645;28;19974;-68
2022/04/05 08:57:10;;;;;;;;;;;7.90;99.90;;;;;;5107012;28;19961;-68
2022/04/05 08:59:36;;;;;;;;;;;8.00;99.90;;;;;;5106994;28;19946;-68
2022/04/05 09:02:03;;;;;;;;;;;8.20;99.90;;;;;;5093839;27;20519;-68
2022/04/05 09:04:33;;;;;;;;;;;8.30;99.90;;;;;;5099954;27;19946;-68
2022/04/05 09:07:19;;;;;;;;;;;8.30;99.90;;;;;;5100862;28;19935;-69
2022/04/05 09:10:05;;;;;;;;;;;8.50;99.90;;;;;;5107509;28;19946;-69
2022/04/05 09:12:39;;;;;;;;;;;8.60;99.90;;;;;;5105724;28;19971;-69
2022/04/05 09:15:34;;;;;;;;;;;8.60;99.90;;;;;;5106871;28;19930;-68
2022/04/05 09:18:01;;;;;;;;;;;8.60;99.90;;;;;;5082044;28;19931;-69
2022/04/05 09:20:28;;;;;;;;;;;8.70;99.90;;;;;;5100322;28;20416;-69
2022/04/05 09:22:56;;;;;;;;;;;8.90;99.90;;;;;;5114039;28;19971;-68
2022/04/05 09:25:23;;;;;;;;;;;9.10;99.90;;;;;;5104467;28;20313;-69
2022/04/05 09:27:51;;;;;;;;;;;9.30;99.90;;;;;;5078659;28;19934;-68
2022/04/05 09:30:23;;;;;;;;;;;9.30;99.90;;;;;;5098864;28;19971;-69
2022/04/05 09:32:51;;;;;;;;;;;9.30;99.90;;;;;;5098306;28;19967;-68
2022/04/05 09:35:29;;;;;;;;;;;9.20;99.90;;;;;;5100061;28;20030;-68
2022/04/05 09:38:11;;;;;;;;;;;9.20;99.90;;;;;;5094831;28;19924;-68
2022/04/05 09:40:38;;;;;;;;;;;9.30;99.90;;;;;;5105357;28;19989;-68
2022/04/05 09:43:25;;;;;;;;;;;9.40;99.90;;;;;;5098384;28;19928;-68
2022/04/05 09:46:01;;;;;;;;;;;9.50;99.90;;;;;;5109368;28;20416;-68
2022/04/05 09:48:32;;;;;;;;;;;9.60;99.90;;;;;;5112195;28;19977;-68
2022/04/05 09:51:02;;;;;;;;;;;9.80;99.90;;;;;;5104340;28;19934;-68
2022/04/05 09:53:40;;;;;;;;;;;9.80;99.90;;;;;;5096271;28;19927;-68
2022/04/05 09:56:07;;;;;;;;;;;9.90;99.90;;;;;;5100319;28;20047;-68
2022/04/05 09:58:34;;;;;;;;;;;10.40;99.90;;;;;;5093387;28;19972;-68
2022/04/05 10:01:07;;;;;;;;;;;10.80;99.90;;;;;;5098953;28;19924;-68
2022/04/05 10:03:35;;;;;;;;;;;10.90;99.90;;;;;;5101726;28;20003;-68
2022/04/05 10:06:02;;;;;;;;;;;10.80;99.90;;;;;;5104955;28;19924;-68
2022/04/05 10:08:33;;;;;;;;;;;10.90;99.90;;;;;;5094474;28;20006;-68
2022/04/05 10:11:00;;;;;;;;;;;11.30;99.90;;;;;;5085817;28;20011;-66
2022/04/05 10:13:27;;;;;;;;;;;12.20;99.90;;;;;;5104712;28;19938;-66
2022/04/05 10:15:55;;;;;;;;;;;12.90;99.90;;;;;;5104568;28;19923;-68
2022/04/05 10:18:23;;;;;;;;;;;13.20;99.90;;;;;;5101664;28;20358;-68
2022/04/05 10:20:50;;;;;;;;;;;13.60;99.90;;;;;;5109624;28;20342;-68
2022/04/05 10:23:19;;;;;;;;;;;13.40;99.90;;;;;;5091658;28;19962;-68
2022/04/05 10:25:48;;;;;;;;;;;13.30;99.90;;;;;;5106919;28;19931;-68
2022/04/05 10:28:22;;;;;;;;;;;13.30;99.90;;;;;;5110790;28;19923;-68
2022/04/05 10:31:03;;;;;;;;;;;13.20;99.90;;;;;;5102854;27;19932;-68
2022/04/05 10:33:35;;;;;;;;;;;12.80;99.90;;;;;;5102319;28;19985;-68
2022/04/05 10:36:02;;;;;;;;;;;12.80;99.90;;;;;;5107385;28;19998;-68
2022/04/05 10:38:30;;;;;;;;;;;12.80;99.90;;;;;;5084495;28;19995;-68
2022/04/05 10:41:16;;;;;;;;;;;12.60;99.90;;;;;;5096944;28;20293;-68
2022/04/05 10:43:46;;;;;;;;;;;12.40;99.90;;;;;;5104128;28;19924;-68
2022/04/05 10:46:14;;;;;;;;;;;12.70;99.90;;;;;;5078148;28;20010;-68
2022/04/05 10:48:55;;;;;;;;;;;13.30;99.90;;;;;;5097940;28;19924;-66
2022/04/05 10:51:30;;;;;;;;;;;13.70;99.90;;;;;;5077896;28;19924;-66
2022/04/05 10:54:19;;;;;;;;;;;13.50;99.90;;;;;;5101108;28;19935;-66
2022/04/05 10:57:05;;;;;;;;;;;12.90;99.90;;;;;;5093231;28;19925;-67
2022/04/05 10:59:45;;;;;;;;;;;12.70;99.90;;;;;;5099197;28;19970;-66
2022/04/05 11:02:31;;;;;;;;;;;12.60;99.90;;;;;;5097776;28;19930;-66
2022/04/05 11:05:02;;;;;;;;;;;12.60;99.90;;;;;;5107345;28;19972;-66
2022/04/05 11:07:47;;;;;;;;;;;13.00;99.90;;;;;;5102354;28;19950;-67
2022/04/05 11:10:15;;;;;;;;;;;13.20;99.90;;;;;;5102320;28;19981;-67
2022/04/05 11:12:42;;;;;;;;;;;13.40;99.90;;;;;;5104076;28;19962;-67
2022/04/05 11:15:10;;;;;;;;;;;13.80;99.90;;;;;;5092138;28;20005;-66
2022/04/05 11:17:37;;;;;;;;;;;13.90;99.90;;;;;;5098615;28;19963;-67
2022/04/05 11:20:05;;;;;;;;;;;14.20;99.90;;;;;;5102119;28;20401;-67
2022/04/05 11:22:33;;;;;;;;;;;14.40;99.90;;;;;;5097716;28;19936;-67
2022/04/05 11:25:26;;;;;;;;;;;14.10;99.90;;;;;;5096372;28;19975;-66
2022/04/05 11:27:53;;;;;;;;;;;13.80;99.90;;;;;;5097120;28;19932;-66
2022/04/05 11:30:40;;;;;;;;;;;13.10;99.90;;;;;;5097634;28;19928;-66
2022/04/05 11:33:26;;;;;;;;;;;12.70;99.90;;;;;;5099590;28;19976;-66
2022/04/05 11:35:58;;;;;;;;;;;12.50;99.90;;;;;;5077999;28;19924;-66
2022/04/05 11:38:28;;;;;;;;;;;12.40;99.90;;;;;;5097509;28;19928;-67
2022/04/05 11:40:58;;;;;;;;;;;12.30;99.90;;;;;;5083994;28;19924;-67
2022/04/05 11:43:28;;;;;;;;;;;12.30;99.90;;;;;;5082518;28;19932;-67
2022/04/05 11:45:56;;;;;;;;;;;12.30;99.90;;;;;;5102859;28;20332;-66
2022/04/05 11:48:26;;;;;;;;;;;12.30;99.90;;;;;;5083198;28;19976;-68
2022/04/05 11:50:53;;;;;;;;;;;12.40;99.90;;;;;;5104776;28;19930;-67
2022/04/05 11:53:21;;;;;;;;;;;12.40;99.90;;;;;;5079877;28;20323;-67
2022/04/05 11:56:07;;;;;;;;;;;12.30;99.90;;;;;;5100916;28;19963;-67
2022/04/05 11:58:38;;;;;;;;;;;12.10;99.90;;;;;;5103631;28;19934;-67
2022/04/05 12:01:06;;;;;;;;;;;12.10;99.90;;;;;;5101972;28;19932;-67
2022/04/05 12:03:40;;;;;;;;;;;12.10;99.90;;;;;;5092950;28;19924;-67
2022/04/05 12:06:07;;;;;;;;;;;12.00;99.90;;;;;;5099509;28;20454;-68
2022/04/05 12:08:33;;;;;;;;;;;12.00;99.90;;;;;;5094507;28;19928;-67
2022/04/05 12:11:00;;;;;;;;;;;12.00;99.90;;;;;;5102034;28;19957;-67
2022/04/05 12:13:29;;;;;;;;;;;12.00;99.90;;;;;;5076809;28;19954;-67
2022/04/05 12:16:00;;;;;;;;;;;11.90;99.90;;;;;;5076619;28;19924;-67
2022/04/05 12:18:30;;;;;;;;;;;11.80;99.90;;;;;;5096325;28;19924;-67
2022/04/05 12:21:01;;;;;;;;;;;11.60;99.90;;;;;;5092557;28;20564;-67
2022/04/05 12:23:35;;;;;;;;;;;11.50;99.90;;;;;;5096079;28;19932;-67
2022/04/05 12:26:15;;;;;;;;;;;11.60;99.90;;;;;;5096810;28;19969;-68
2022/04/05 12:28:43;;;;;;;;;;;11.80;99.90;;;;;;5073321;28;19962;-67
2022/04/05 12:31:15;;;;;;;;;;;11.80;99.90;;;;;;5092759;28;20454;-67
2022/04/05 12:33:56;;;;;;;;;;;11.90;99.90;;;;;;5076679;28;19955;-67
2022/04/05 12:36:24;;;;;;;;;;;11.90;99.90;;;;;;5082537;28;19923;-67
2022/04/05 12:38:51;;;;;;;;;;;11.80;99.90;;;;;;5102451;28;20331;-67
2022/04/05 12:41:18;;;;;;;;;;;11.80;99.90;;;;;;5100515;28;19923;-67
2022/04/05 12:44:04;;;;;;;;;;;11.80;99.90;;;;;;5105030;28;19950;-67
2022/04/05 12:46:54;;;;;;;;;;;11.70;99.90;;;;;;5102315;28;19955;-67
2022/04/05 12:49:23;;;;;;;;;;;11.60;99.90;;;;;;5096462;28;20339;-66
2022/04/05 12:52:11;;;;;;;;;;;11.70;99.90;;;;;;5103623;28;19973;-67
2022/04/05 12:54:43;;;;;;;;;;;12.00;99.90;;;;;;5103574;28;20042;-67
2022/04/05 12:57:16;;;;;;;;;;;12.20;99.90;;;;;;5086035;28;19932;-67
2022/04/05 12:59:44;;;;;;;;;;;12.30;99.90;;;;;;5111581;27;19924;-66
2022/04/05 13:02:18;;;;;;;;;;;12.60;99.90;;;;;;5103120;28;19957;-67
2022/04/05 13:04:45;;;;;;;;;;;13.00;99.90;;;;;;5094896;28;19938;-66
2022/04/05 13:07:19;;;;;;;;;;;12.90;99.90;;;;;;5100283;28;19969;-66
2022/04/05 13:09:46;;;;;;;;;;;12.40;99.90;;;;;;5098489;28;19932;-67
2022/04/05 13:12:13;;;;;;;;;;;12.10;99.90;;;;;;5102124;28;20019;-67
2022/04/05 13:14:40;;;;;;;;;;;11.80;99.90;;;;;;5101676;27;19970;-67
2022/04/05 13:17:08;;;;;;;;;;;11.70;99.90;;;;;;5104590;28;19955;-67
2022/04/05 13:19:35;;;;;;;;;;;11.50;99.90;;;;;;5115674;27;19923;-67
2022/04/05 13:22:10;;;;;;;;;;;11.50;99.90;;;;;;5100571;28;19924;-66
2022/04/05 13:24:39;;;;;;;;;;;11.70;99.90;;;;;;5101133;28;20015;-67
2022/04/05 13:27:14;;;;;;;;;;;11.80;99.90;;;;;;5108482;28;19943;-67
2022/04/05 13:29:42;;;;;;;;;;;12.00;99.90;;;;;;5107246;27;19928;-67
2022/04/05 13:32:23;;;;;;;;;;;12.00;99.90;;;;;;5102947;27;20263;-67
2022/04/05 13:34:49;;;;;;;;;;;12.00;99.90;;;;;;5102738;28;20062;-66
2022/04/05 13:37:17;;;;;;;;;;;11.90;99.90;;;;;;5097187;28;20423;-66
2022/04/05 13:39:51;;;;;;;;;;;11.90;99.90;;;;;;5084873;28;20010;-66
2022/04/05 13:42:19;;;;;;;;;;;11.70;99.90;;;;;;5096915;28;19932;-67
2022/04/05 13:44:47;;;;;;;;;;;11.70;99.90;;;;;;5085691;28;20066;-67
2022/04/05 13:47:14;;;;;;;;;;;11.70;99.90;;;;;;5102797;28;20386;-66
2022/04/05 13:49:44;;;;;;;;;;;11.90;99.90;;;;;;5102920;27;20004;-67
2022/04/05 13:52:11;;;;;;;;;;;12.10;99.90;;;;;;5099956;28;19966;-67
2022/04/05 13:54:58;;;;;;;;;;;12.20;99.90;;;;;;5100223;28;19924;-67
2022/04/05 13:57:25;;;;;;;;;;;12.50;99.90;;;;;;5096582;28;19924;-67
2022/04/05 13:59:51;;;;;;;;;;;12.60;99.90;;;;;;5101438;28;19930;-66
2022/04/05 14:02:18;;;;;;;;;;;12.60;99.90;;;;;;5103039;28;20066;-67
2022/04/05 14:04:47;;;;;;;;;;;12.50;99.90;;;;;;5101274;28;20456;-66
2022/04/05 14:07:14;;;;;;;;;;;12.30;99.90;;;;;;5099631;28;20027;-67
2022/04/05 14:09:42;;;;;;;;;;;12.10;99.90;;;;;;5098313;28;19931;-66
2022/04/05 14:12:09;;;;;;;;;;;12.10;99.90;;;;;;5105161;28;19928;-66
2022/04/05 14:14:36;;;;;;;;;;;12.00;99.90;;;;;;5097055;28;19972;-69
2022/04/05 14:17:02;;;;;;;;;;;12.10;99.90;;;;;;5103532;28;19942;-69
2022/04/05 14:19:29;;;;;;;;;;;12.20;99.90;;;;;;5086453;28;19932;-69
2022/04/05 14:21:57;;;;;;;;;;;12.30;99.90;;;;;;5103406;28;19924;-69
2022/04/05 14:24:25;;;;;;;;;;;12.20;99.90;;;;;;5105297;28;20022;-69
2022/04/05 14:26:54;;;;;;;;;;;12.20;99.90;;;;;;5083896;28;19927;-72
2022/04/05 14:29:23;;;;;;;;;;;12.10;99.90;;;;;;5097654;27;20401;-68
2022/04/05 14:31:50;;;;;;;;;;;11.90;99.90;;;;;;5099535;28;19932;-69
2022/04/05 14:34:17;;;;;;;;;;;11.80;99.90;;;;;;5085789;28;19981;-69
2022/04/05 14:36:45;;;;;;;;;;;11.70;99.90;;;;;;5098811;28;19924;-69